Time,TemperatureF,DewpointF,PressureIn,WindDirection,WindDirectionDegrees,WindSpeedMPH,WindSpeedGustMPH,Humidity,HourlyPrecipIn,Conditions,Clouds,dailyrainin,SoftwareType,DateUTC
2013-07-06 00:00:00,73.7,67.1,29.75,SSE,149,0.0,-999.0,67,0.00,,,0.00,Custom/Perl,2013-07-06 05:00:00,
2013-07-06 00:05:00,74.0,67.4,29.75,SSE,167,0.0,-999.0,67,0.00,,,0.00,Custom/Perl,2013-07-06 05:05:00,
2013-07-06 00:11:00,74.0,67.4,29.75,SW,222,0.0,-999.0,67,0.00,,,0.00,Custom/Perl,2013-07-06 05:11:00,
2013-07-06 00:16:00,73.9,67.3,29.75,SW,226,0.0,-999.0,67,0.00,,,0.00,Custom/Perl,2013-07-06 05:16:00,
2013-07-06 00:21:00,73.8,67.2,29.75,SSW,197,0.0,-999.0,67,0.00,,,0.00,Custom/Perl,2013-07-06 05:21:00,
2013-07-06 00:26:00,73.6,67.0,29.75,SSW,201,0.0,-999.0,67,0.00,,,0.00,Custom/Perl,2013-07-06 05:26:00,
2013-07-06 00:31:00,73.6,67.2,29.75,SW,217,0.0,-999.0,68,0.00,,,0.00,Custom/Perl,2013-07-06 05:31:00,
2013-07-06 00:37:00,73.5,67.1,29.74,SW,217,0.0,-999.0,68,0.00,,,0.00,Custom/Perl,2013-07-06 05:37:00,
2013-07-06 00:42:00,73.4,67.0,29.74,SSW,203,0.0,-999.0,68,0.00,,,0.00,Custom/Perl,2013-07-06 05:42:00,
2013-07-06 00:47:00,73.5,67.1,29.74,SW,222,0.0,-999.0,68,0.00,,,0.00,Custom/Perl,2013-07-06 05:47:00,
2013-07-06 00:52:00,73.4,67.0,29.74,SW,226,0.0,-999.0,68,0.00,,,0.00,Custom/Perl,2013-07-06 05:52:00,
2013-07-06 00:58:00,73.5,67.1,29.74,SW,224,0.0,-999.0,68,0.00,,,0.00,Custom/Perl,2013-07-06 05:58:00,
2013-07-06 01:03:00,73.3,66.9,29.74,SSW,205,0.0,-999.0,68,0.00,,,0.00,Custom/Perl,2013-07-06 06:03:00,
2013-07-06 01:08:00,73.1,66.9,29.74,SSW,205,0.0,-999.0,69,0.00,,,0.00,Custom/Perl,2013-07-06 06:08:00,
2013-07-06 01:13:00,72.9,66.7,29.74,SSE,167,0.0,-999.0,69,0.00,,,0.00,Custom/Perl,2013-07-06 06:13:00,
2013-07-06 01:18:00,72.7,66.5,29.75,SSE,167,0.0,-999.0,69,0.00,,,0.00,Custom/Perl,2013-07-06 06:18:00,
2013-07-06 01:24:00,72.4,66.4,29.74,SSE,167,0.0,-999.0,70,0.00,,,0.00,Custom/Perl,2013-07-06 06:24:00,
2013-07-06 01:29:00,72.1,66.1,29.74,SSE,167,0.0,-999.0,70,0.00,,,0.00,Custom/Perl,2013-07-06 06:29:00,
2013-07-06 01:34:00,71.9,66.1,29.74,SSE,167,0.0,-999.0,71,0.00,,,0.00,Custom/Perl,2013-07-06 06:34:00,
2013-07-06 01:39:00,71.6,65.8,29.74,SSE,167,0.0,-999.0,71,0.00,,,0.00,Custom/Perl,2013-07-06 06:39:00,
2013-07-06 01:44:00,71.4,65.8,29.74,SSE,167,0.0,-999.0,72,0.00,,,0.00,Custom/Perl,2013-07-06 06:44:00,
2013-07-06 01:50:00,71.3,65.7,29.74,SSE,167,0.0,-999.0,72,0.00,,,0.00,Custom/Perl,2013-07-06 06:50:00,
2013-07-06 01:55:00,71.3,65.9,29.74,South,186,0.0,-999.0,73,0.00,,,0.00,Custom/Perl,2013-07-06 06:55:00,
2013-07-06 02:00:00,71.5,65.9,29.74,South,180,0.0,-999.0,72,0.00,,,0.00,Custom/Perl,2013-07-06 07:00:00,
2013-07-06 02:05:00,71.7,66.1,29.74,SSW,207,0.0,-999.0,72,0.00,,,0.00,Custom/Perl,2013-07-06 07:05:00,
2013-07-06 02:10:00,71.7,65.9,29.74,SE,146,0.0,-999.0,71,0.00,,,0.00,Custom/Perl,2013-07-06 07:10:00,
2013-07-06 02:16:00,71.8,66.0,29.74,South,170,1.0,-999.0,71,0.00,,,0.00,Custom/Perl,2013-07-06 07:16:00,
2013-07-06 02:21:00,71.9,66.1,29.74,South,186,0.0,-999.0,71,0.00,,,0.00,Custom/Perl,2013-07-06 07:21:00,
2013-07-06 02:26:00,71.8,66.0,29.74,South,187,0.0,-999.0,71,0.00,,,0.00,Custom/Perl,2013-07-06 07:26:00,
2013-07-06 02:31:00,71.8,66.0,29.74,SW,229,0.0,-999.0,71,0.00,,,0.00,Custom/Perl,2013-07-06 07:31:00,
2013-07-06 02:36:00,71.7,65.9,29.74,SSW,195,0.0,-999.0,71,0.00,,,0.00,Custom/Perl,2013-07-06 07:36:00,
2013-07-06 02:42:00,71.5,65.7,29.74,SW,219,0.0,-999.0,71,0.00,,,0.00,Custom/Perl,2013-07-06 07:42:00,
2013-07-06 02:47:00,71.5,65.7,29.74,SSW,209,1.0,-999.0,71,0.00,,,0.00,Custom/Perl,2013-07-06 07:47:00,
2013-07-06 02:52:00,71.6,65.8,29.74,SSE,153,0.0,-999.0,71,0.00,,,0.00,Custom/Perl,2013-07-06 07:52:00,
2013-07-06 02:57:00,71.6,65.8,29.74,SSW,198,0.0,-999.0,71,0.00,,,0.00,Custom/Perl,2013-07-06 07:57:00,
2013-07-06 03:03:00,71.5,65.7,29.74,SSW,208,0.0,-999.0,71,0.00,,,0.00,Custom/Perl,2013-07-06 08:03:00,
2013-07-06 03:08:00,71.4,65.8,29.74,SSW,194,0.0,-999.0,72,0.00,,,0.00,Custom/Perl,2013-07-06 08:08:00,
2013-07-06 03:13:00,71.4,65.8,29.74,SSE,160,0.0,-999.0,72,0.00,,,0.00,Custom/Perl,2013-07-06 08:13:00,
2013-07-06 03:18:00,71.2,65.6,29.74,SSE,150,0.0,-999.0,72,0.00,,,0.00,Custom/Perl,2013-07-06 08:18:00,
2013-07-06 03:23:00,71.0,65.4,29.74,SSE,150,0.0,-999.0,72,0.00,,,0.00,Custom/Perl,2013-07-06 08:23:00,
2013-07-06 03:29:00,70.7,65.3,29.75,South,170,0.0,-999.0,73,0.00,,,0.00,Custom/Perl,2013-07-06 08:29:00,
2013-07-06 03:34:00,70.6,65.4,29.75,SE,125,0.0,-999.0,74,0.00,,,0.00,Custom/Perl,2013-07-06 08:34:00,
2013-07-06 03:39:00,70.5,65.3,29.75,WSW,248,0.0,-999.0,74,0.00,,,0.00,Custom/Perl,2013-07-06 08:39:00,
2013-07-06 03:44:00,70.5,65.3,29.75,SW,220,0.0,-999.0,74,0.00,,,0.00,Custom/Perl,2013-07-06 08:44:00,
2013-07-06 03:49:00,70.4,65.2,29.75,SSW,213,0.0,-999.0,74,0.00,,,0.00,Custom/Perl,2013-07-06 08:49:00,
2013-07-06 03:55:00,70.3,65.1,29.75,SSE,153,0.0,-999.0,74,0.00,,,0.00,Custom/Perl,2013-07-06 08:55:00,
2013-07-06 04:00:00,70.3,65.1,29.75,SSE,154,0.0,-999.0,74,0.00,,,0.00,Custom/Perl,2013-07-06 09:00:00,
2013-07-06 04:05:00,70.2,65.0,29.74,SSE,154,0.0,-999.0,74,0.00,,,0.00,Custom/Perl,2013-07-06 09:05:00,
2013-07-06 04:10:00,70.0,64.8,29.75,South,169,0.0,-999.0,74,0.00,,,0.00,Custom/Perl,2013-07-06 09:10:00,
2013-07-06 04:16:00,69.8,64.8,29.74,South,169,0.0,-999.0,75,0.00,,,0.00,Custom/Perl,2013-07-06 09:16:00,
2013-07-06 04:21:00,69.6,64.6,29.74,South,169,0.0,-999.0,75,0.00,,,0.00,Custom/Perl,2013-07-06 09:21:00,
2013-07-06 04:26:00,69.5,64.5,29.75,South,169,0.0,-999.0,75,0.00,,,0.00,Custom/Perl,2013-07-06 09:26:00,
2013-07-06 04:31:00,69.3,64.5,29.74,SSE,168,0.0,-999.0,76,0.00,,,0.00,Custom/Perl,2013-07-06 09:31:00,
2013-07-06 04:37:00,69.2,64.4,29.74,SSE,161,0.0,-999.0,76,0.00,,,0.00,Custom/Perl,2013-07-06 09:37:00,
2013-07-06 04:42:00,69.1,64.3,29.75,SSW,207,0.0,-999.0,76,0.00,,,0.00,Custom/Perl,2013-07-06 09:42:00,
2013-07-06 04:47:00,69.2,64.4,29.75,SSW,203,0.0,-999.0,76,0.00,,,0.00,Custom/Perl,2013-07-06 09:47:00,
2013-07-06 04:52:00,69.2,64.4,29.75,SSW,203,0.0,-999.0,76,0.00,,,0.00,Custom/Perl,2013-07-06 09:52:00,
2013-07-06 04:57:00,69.1,64.5,29.75,SSW,194,0.0,-999.0,77,0.00,,,0.00,Custom/Perl,2013-07-06 09:57:00,
2013-07-06 05:02:00,68.9,64.3,29.75,SSW,195,0.0,-999.0,77,0.00,,,0.00,Custom/Perl,2013-07-06 10:02:00,
2013-07-06 05:08:00,68.7,64.1,29.75,SSW,195,0.0,-999.0,77,0.00,,,0.00,Custom/Perl,2013-07-06 10:08:00,
2013-07-06 05:13:00,68.6,64.2,29.75,SSW,195,0.0,-999.0,78,0.00,,,0.00,Custom/Perl,2013-07-06 10:13:00,
2013-07-06 05:18:00,68.4,64.0,29.75,SSW,195,0.0,-999.0,78,0.00,,,0.00,Custom/Perl,2013-07-06 10:18:00,
2013-07-06 05:23:00,68.3,63.9,29.75,SSW,195,0.0,-999.0,78,0.00,,,0.00,Custom/Perl,2013-07-06 10:23:00,
2013-07-06 05:28:00,68.2,63.8,29.75,SSW,195,0.0,-999.0,78,0.00,,,0.00,Custom/Perl,2013-07-06 10:28:00,
2013-07-06 05:34:00,68.1,63.9,29.75,SW,219,0.0,-999.0,79,0.00,,,0.00,Custom/Perl,2013-07-06 10:34:00,
2013-07-06 05:39:00,68.2,64.0,29.75,WSW,243,0.0,-999.0,79,0.00,,,0.00,Custom/Perl,2013-07-06 10:39:00,
2013-07-06 05:44:00,68.4,64.0,29.76,SSE,158,1.0,-999.0,78,0.00,,,0.00,Custom/Perl,2013-07-06 10:44:00,
2013-07-06 05:49:00,68.6,64.2,29.76,South,172,0.0,-999.0,78,0.00,,,0.00,Custom/Perl,2013-07-06 10:49:00,
2013-07-06 05:55:00,68.8,64.4,29.76,SSW,210,0.0,-999.0,78,0.00,,,0.00,Custom/Perl,2013-07-06 10:55:00,
2013-07-06 06:00:00,68.8,64.2,29.76,SSE,147,1.0,-999.0,77,0.00,,,0.00,Custom/Perl,2013-07-06 11:00:00,
2013-07-06 06:05:00,69.0,64.4,29.76,SSE,167,0.0,-999.0,77,0.00,,,0.00,Custom/Perl,2013-07-06 11:05:00,
2013-07-06 06:10:00,69.3,64.5,29.76,SW,216,0.0,-999.0,76,0.00,,,0.00,Custom/Perl,2013-07-06 11:10:00,
2013-07-06 06:15:00,69.4,64.6,29.76,SSE,166,1.0,-999.0,76,0.00,,,0.00,Custom/Perl,2013-07-06 11:15:00,
2013-07-06 06:21:00,69.5,64.5,29.77,South,172,0.0,-999.0,75,0.00,,,0.00,Custom/Perl,2013-07-06 11:21:00,
2013-07-06 06:26:00,69.7,64.7,29.77,SSW,198,0.0,-999.0,75,0.00,,,0.00,Custom/Perl,2013-07-06 11:26:00,
2013-07-06 06:31:00,69.8,64.8,29.77,SW,222,0.0,-999.0,75,0.00,,,0.00,Custom/Perl,2013-07-06 11:31:00,
2013-07-06 06:36:00,69.9,64.9,29.77,SSW,203,0.0,-999.0,75,0.00,,,0.00,Custom/Perl,2013-07-06 11:36:00,
2013-07-06 06:42:00,70.0,65.0,29.77,South,172,0.0,-999.0,75,0.00,,,0.00,Custom/Perl,2013-07-06 11:42:00,
2013-07-06 06:47:00,70.1,65.3,29.77,SW,228,0.0,-999.0,76,0.00,,,0.00,Custom/Perl,2013-07-06 11:47:00,
2013-07-06 06:52:00,70.2,65.2,29.77,WSW,252,0.0,-999.0,75,0.00,,,0.00,Custom/Perl,2013-07-06 11:52:00,
2013-07-06 06:57:00,70.5,65.5,29.77,SW,227,0.0,-999.0,75,0.00,,,0.00,Custom/Perl,2013-07-06 11:57:00,
2013-07-06 07:02:00,70.6,66.0,29.77,SSW,200,0.0,-999.0,77,0.00,,,0.01,Custom/Perl,2013-07-06 12:02:00,
2013-07-06 07:08:00,70.2,66.2,29.77,SE,127,0.0,-999.0,80,0.13,,,0.02,Custom/Perl,2013-07-06 12:08:00,
2013-07-06 07:13:00,69.7,66.1,29.77,SSE,164,0.0,-999.0,82,0.12,,,0.03,Custom/Perl,2013-07-06 12:13:00,
2013-07-06 07:18:00,69.3,65.9,29.77,SSW,199,0.0,-999.0,83,0.06,,,0.03,Custom/Perl,2013-07-06 12:18:00,
2013-07-06 07:23:00,69.2,65.8,29.77,SSW,195,1.0,-999.0,83,0.04,,,0.03,Custom/Perl,2013-07-06 12:23:00,
2013-07-06 07:29:00,69.0,65.8,29.77,SW,217,0.0,-999.0,84,0.00,,,0.03,Custom/Perl,2013-07-06 12:29:00,
2013-07-06 07:34:00,68.9,65.5,29.77,SW,226,0.0,-999.0,83,0.00,,,0.03,Custom/Perl,2013-07-06 12:34:00,
2013-07-06 07:39:00,68.9,65.7,29.77,SSW,206,2.0,-999.0,84,0.00,,,0.03,Custom/Perl,2013-07-06 12:39:00,
2013-07-06 07:44:00,69.0,66.0,29.78,South,191,0.0,-999.0,85,0.00,,,0.03,Custom/Perl,2013-07-06 12:44:00,
2013-07-06 07:49:00,68.9,65.9,29.78,SSE,155,2.0,-999.0,85,0.00,,,0.03,Custom/Perl,2013-07-06 12:49:00,
2013-07-06 07:55:00,68.9,65.9,29.78,SW,232,0.0,-999.0,85,0.00,,,0.03,Custom/Perl,2013-07-06 12:55:00,
2013-07-06 08:00:00,68.9,65.9,29.78,SW,232,0.0,-999.0,85,0.00,,,0.03,Custom/Perl,2013-07-06 13:00:00,
2013-07-06 08:05:00,68.9,66.1,29.78,SW,227,0.0,-999.0,86,0.00,,,0.03,Custom/Perl,2013-07-06 13:05:00,
2013-07-06 08:10:00,69.0,66.2,29.78,WSW,245,0.0,-999.0,86,0.00,,,0.03,Custom/Perl,2013-07-06 13:10:00,
2013-07-06 08:15:00,69.2,66.4,29.78,SSW,205,0.0,-999.0,86,0.00,,,0.03,Custom/Perl,2013-07-06 13:15:00,
2013-07-06 08:21:00,69.3,66.3,29.77,SW,226,1.0,-999.0,85,0.00,,,0.03,Custom/Perl,2013-07-06 13:21:00,
2013-07-06 08:26:00,69.4,66.4,29.77,WNW,284,0.0,-999.0,85,0.00,,,0.03,Custom/Perl,2013-07-06 13:26:00,
2013-07-06 08:31:00,69.5,66.5,29.77,SSE,156,0.0,-999.0,85,0.00,,,0.03,Custom/Perl,2013-07-06 13:31:00,
2013-07-06 08:36:00,69.7,66.9,29.78,SW,221,0.0,-999.0,86,0.00,,,0.03,Custom/Perl,2013-07-06 13:36:00,
2013-07-06 08:42:00,69.9,66.9,29.78,SSW,212,0.0,-999.0,85,0.00,,,0.03,Custom/Perl,2013-07-06 13:42:00,
2013-07-06 08:47:00,70.1,66.9,29.78,West,271,0.0,-999.0,84,0.00,,,0.03,Custom/Perl,2013-07-06 13:47:00,
2013-07-06 08:52:00,70.4,67.2,29.78,SSE,164,0.0,-999.0,84,0.00,,,0.03,Custom/Perl,2013-07-06 13:52:00,
2013-07-06 08:57:00,70.6,67.2,29.78,West,279,1.0,-999.0,83,0.00,,,0.03,Custom/Perl,2013-07-06 13:57:00,
2013-07-06 09:02:00,70.7,67.3,29.78,West,266,0.0,-999.0,83,0.00,,,0.03,Custom/Perl,2013-07-06 14:02:00,
2013-07-06 09:08:00,70.9,67.3,29.78,WNW,302,0.0,-999.0,82,0.00,,,0.03,Custom/Perl,2013-07-06 14:08:00,
2013-07-06 09:13:00,71.0,67.6,29.78,WSW,250,0.0,-999.0,83,0.00,,,0.03,Custom/Perl,2013-07-06 14:13:00,
2013-07-06 09:18:00,71.1,67.5,29.78,West,278,0.0,-999.0,82,0.00,,,0.03,Custom/Perl,2013-07-06 14:18:00,
2013-07-06 09:23:00,71.2,67.6,29.78,NW,318,0.0,-999.0,82,0.00,,,0.03,Custom/Perl,2013-07-06 14:23:00,
2013-07-06 09:29:00,71.4,67.6,29.78,West,280,0.0,-999.0,81,0.00,,,0.03,Custom/Perl,2013-07-06 14:29:00,
2013-07-06 09:34:00,71.8,67.8,29.77,WSW,241,0.0,-999.0,80,0.00,,,0.03,Custom/Perl,2013-07-06 14:34:00,
2013-07-06 09:39:00,72.2,68.2,29.78,WSW,248,0.0,-999.0,80,0.00,,,0.03,Custom/Perl,2013-07-06 14:39:00,
2013-07-06 09:44:00,72.6,68.4,29.77,West,259,0.0,-999.0,79,0.00,,,0.03,Custom/Perl,2013-07-06 14:44:00,
2013-07-06 09:49:00,72.9,68.5,29.77,West,269,0.0,-999.0,78,0.00,,,0.03,Custom/Perl,2013-07-06 14:49:00,
2013-07-06 09:55:00,73.2,69.0,29.77,WSW,257,0.0,-999.0,79,0.00,,,0.03,Custom/Perl,2013-07-06 14:55:00,
2013-07-06 10:00:00,73.4,68.8,29.77,SSW,210,2.0,-999.0,77,0.00,,,0.03,Custom/Perl,2013-07-06 15:00:00,
2013-07-06 10:05:00,73.6,69.0,29.77,NNW,345,0.0,-999.0,77,0.00,,,0.03,Custom/Perl,2013-07-06 15:05:00,
2013-07-06 10:10:00,73.8,69.2,29.77,SSW,199,0.0,-999.0,77,0.00,,,0.03,Custom/Perl,2013-07-06 15:10:00,
2013-07-06 10:16:00,74.1,69.3,29.76,NW,320,0.0,-999.0,76,0.00,,,0.03,Custom/Perl,2013-07-06 15:16:00,
2013-07-06 10:21:00,74.8,70.0,29.76,WSW,245,1.0,-999.0,76,0.00,,,0.03,Custom/Perl,2013-07-06 15:21:00,
2013-07-06 10:26:00,75.6,70.8,29.76,SSW,205,0.0,-999.0,76,0.00,,,0.03,Custom/Perl,2013-07-06 15:26:00,
2013-07-06 10:31:00,76.8,71.4,29.76,NNW,341,0.0,-999.0,73,0.00,,,0.03,Custom/Perl,2013-07-06 15:31:00,
2013-07-06 10:36:00,77.6,72.2,29.76,WNW,285,2.0,-999.0,73,0.00,,,0.03,Custom/Perl,2013-07-06 15:36:00,
2013-07-06 10:42:00,78.6,73.0,29.76,WSW,245,0.0,-999.0,72,0.00,,,0.03,Custom/Perl,2013-07-06 15:42:00,
2013-07-06 10:47:00,79.6,73.6,29.76,WSW,239,1.0,-999.0,70,0.00,,,0.03,Custom/Perl,2013-07-06 15:47:00,
2013-07-06 10:52:00,80.4,74.0,29.76,West,259,0.0,-999.0,68,0.00,,,0.03,Custom/Perl,2013-07-06 15:52:00,
2013-07-06 10:57:00,81.0,74.0,29.76,South,186,2.0,-999.0,65,0.00,,,0.03,Custom/Perl,2013-07-06 15:57:00,
2013-07-06 11:03:00,81.6,74.4,29.76,South,187,7.0,-999.0,64,0.00,,,0.03,Custom/Perl,2013-07-06 16:03:00,
2013-07-06 11:08:00,82.1,74.9,29.76,WSW,254,4.0,-999.0,64,0.00,,,0.03,Custom/Perl,2013-07-06 16:08:00,
2013-07-06 11:14:00,82.6,75.0,29.75,SSE,167,1.0,-999.0,62,0.00,,,0.03,Custom/Perl,2013-07-06 16:14:00,
2013-07-06 11:21:00,83.4,75.2,29.75,ESE,120,3.0,-999.0,59,0.00,,,0.03,Custom/Perl,2013-07-06 16:21:00,
2013-07-06 11:26:00,84.0,75.2,29.75,SSE,155,6.0,-999.0,56,0.00,,,0.03,Custom/Perl,2013-07-06 16:26:00,
2013-07-06 11:34:00,84.7,75.9,29.75,SSW,212,5.0,-999.0,56,0.00,,,0.03,Custom/Perl,2013-07-06 16:34:00,
2013-07-06 11:39:00,85.3,76.5,29.74,SSW,207,6.0,-999.0,56,0.00,,,0.03,Custom/Perl,2013-07-06 16:39:00,
2013-07-06 11:45:00,85.6,76.8,29.74,SW,217,0.0,-999.0,56,0.00,,,0.03,Custom/Perl,2013-07-06 16:45:00,
2013-07-06 11:54:00,85.3,76.3,29.74,SSW,210,3.0,-999.0,55,0.00,,,0.03,Custom/Perl,2013-07-06 16:54:00,
2013-07-06 12:00:00,85.3,76.3,29.73,SE,141,4.0,-999.0,55,0.00,,,0.03,Custom/Perl,2013-07-06 17:00:00,
2013-07-06 12:05:00,85.4,76.4,29.73,ESE,118,5.0,-999.0,55,0.00,,,0.03,Custom/Perl,2013-07-06 17:05:00,
2013-07-06 12:10:00,85.5,76.1,29.73,SW,216,5.0,-999.0,53,0.00,,,0.03,Custom/Perl,2013-07-06 17:10:00,
2013-07-06 12:16:00,85.7,76.7,29.73,SW,225,2.0,-999.0,55,0.00,,,0.03,Custom/Perl,2013-07-06 17:16:00,
2013-07-06 12:21:00,86.1,76.9,29.73,ESE,115,6.0,-999.0,54,0.00,,,0.03,Custom/Perl,2013-07-06 17:21:00,
2013-07-06 12:26:00,86.5,76.9,29.73,SSW,195,3.0,-999.0,52,0.00,,,0.03,Custom/Perl,2013-07-06 17:26:00,
2013-07-06 12:34:00,86.7,77.1,29.73,East,88,8.0,-999.0,52,0.00,,,0.03,Custom/Perl,2013-07-06 17:34:00,
2013-07-06 12:40:00,86.6,76.8,29.73,SSE,168,6.0,-999.0,51,0.00,,,0.03,Custom/Perl,2013-07-06 17:40:00,
2013-07-06 12:45:00,86.6,77.0,29.73,NW,319,3.0,-999.0,52,0.00,,,0.03,Custom/Perl,2013-07-06 17:45:00,
2013-07-06 12:51:00,87.0,77.6,29.73,WSW,243,2.0,-999.0,53,0.00,,,0.03,Custom/Perl,2013-07-06 17:51:00,
2013-07-06 12:56:00,87.2,77.4,29.72,SSE,165,2.0,-999.0,51,0.00,,,0.03,Custom/Perl,2013-07-06 17:56:00,
2013-07-06 13:01:00,87.0,77.6,29.72,WNW,301,2.0,-999.0,53,0.00,,,0.03,Custom/Perl,2013-07-06 18:01:00,
2013-07-06 13:07:00,86.6,77.2,29.72,South,172,2.0,-999.0,53,0.00,,,0.03,Custom/Perl,2013-07-06 18:07:00,
2013-07-06 13:13:00,86.1,76.5,29.72,WSW,237,6.0,-999.0,52,0.00,,,0.03,Custom/Perl,2013-07-06 18:13:00,
2013-07-06 13:18:00,85.7,76.3,29.72,South,176,0.0,-999.0,53,0.00,,,0.03,Custom/Perl,2013-07-06 18:18:00,
2013-07-06 13:24:00,85.8,76.6,29.72,West,271,1.0,-999.0,54,0.00,,,0.03,Custom/Perl,2013-07-06 18:24:00,
2013-07-06 13:30:00,86.0,76.8,29.72,SW,220,3.0,-999.0,54,0.00,,,0.03,Custom/Perl,2013-07-06 18:30:00,
2013-07-06 13:36:00,86.0,76.4,29.72,South,176,3.0,-999.0,52,0.00,,,0.03,Custom/Perl,2013-07-06 18:36:00,
2013-07-06 13:42:00,86.3,76.7,29.72,SW,232,2.0,-999.0,52,0.00,,,0.03,Custom/Perl,2013-07-06 18:42:00,
2013-07-06 13:49:00,86.2,76.6,29.72,SW,236,4.0,-999.0,52,0.00,,,0.03,Custom/Perl,2013-07-06 18:49:00,
2013-07-06 13:55:00,86.0,76.4,29.72,SE,136,6.0,-999.0,52,0.00,,,0.03,Custom/Perl,2013-07-06 18:55:00,
2013-07-06 14:01:00,85.6,76.0,29.72,South,173,9.0,-999.0,52,0.00,,,0.03,Custom/Perl,2013-07-06 19:01:00,
2013-07-06 14:07:00,85.3,75.9,29.72,West,277,2.0,-999.0,53,0.00,,,0.03,Custom/Perl,2013-07-06 19:07:00,
2013-07-06 14:12:00,85.2,76.2,29.72,SSW,200,0.0,-999.0,55,0.00,,,0.03,Custom/Perl,2013-07-06 19:12:00,
2013-07-06 14:18:00,85.0,75.8,29.72,South,174,10.0,-999.0,54,0.00,,,0.03,Custom/Perl,2013-07-06 19:18:00,
2013-07-06 14:26:00,84.9,76.1,29.72,SW,231,1.0,-999.0,56,0.00,,,0.03,Custom/Perl,2013-07-06 19:26:00,
2013-07-06 14:31:00,84.8,75.4,29.72,West,266,1.0,-999.0,53,0.00,,,0.03,Custom/Perl,2013-07-06 19:31:00,
2013-07-06 14:37:00,84.7,75.5,29.72,SW,230,1.0,-999.0,54,0.00,,,0.03,Custom/Perl,2013-07-06 19:37:00,
2013-07-06 14:43:00,84.7,75.5,29.72,SSE,167,4.0,-999.0,54,0.00,,,0.03,Custom/Perl,2013-07-06 19:43:00,
2013-07-06 14:48:00,84.6,75.4,29.72,SSE,167,7.0,-999.0,54,0.00,,,0.03,Custom/Perl,2013-07-06 19:48:00,
2013-07-06 14:54:00,84.3,75.1,29.72,SSW,213,3.0,-999.0,54,0.00,,,0.03,Custom/Perl,2013-07-06 19:54:00,
2013-07-06 15:00:00,84.1,75.1,29.72,SSW,208,4.0,-999.0,55,0.00,,,0.03,Custom/Perl,2013-07-06 20:00:00,
2013-07-06 15:06:00,83.9,75.1,29.72,SE,133,1.0,-999.0,56,0.00,,,0.03,Custom/Perl,2013-07-06 20:06:00,
2013-07-06 15:13:00,83.6,74.8,29.72,SSW,207,2.0,-999.0,56,0.00,,,0.03,Custom/Perl,2013-07-06 20:13:00,
2013-07-06 15:19:00,83.5,74.7,29.73,SSW,212,1.0,-999.0,56,0.00,,,0.03,Custom/Perl,2013-07-06 20:19:00,
2013-07-06 15:25:00,83.3,74.7,29.73,SW,221,3.0,-999.0,57,0.00,,,0.03,Custom/Perl,2013-07-06 20:25:00,
2013-07-06 15:30:00,83.1,74.5,29.72,SSE,160,3.0,-999.0,57,0.00,,,0.03,Custom/Perl,2013-07-06 20:30:00,
2013-07-06 15:37:00,82.8,74.6,29.72,South,189,2.0,-999.0,59,0.00,,,0.03,Custom/Perl,2013-07-06 20:37:00,
2013-07-06 15:43:00,82.6,74.2,29.73,SSE,153,1.0,-999.0,58,0.00,,,0.03,Custom/Perl,2013-07-06 20:43:00,
2013-07-06 15:48:00,82.5,74.5,29.73,South,170,2.0,-999.0,60,0.00,,,0.03,Custom/Perl,2013-07-06 20:48:00,
2013-07-06 15:54:00,82.1,74.1,29.73,South,190,2.0,-999.0,60,0.00,,,0.03,Custom/Perl,2013-07-06 20:54:00,
2013-07-06 16:02:00,81.6,73.8,29.73,SSW,206,0.0,-999.0,61,0.00,,,0.03,Custom/Perl,2013-07-06 21:02:00,
2013-07-06 16:07:00,81.2,73.6,29.73,South,179,3.0,-999.0,62,0.00,,,0.03,Custom/Perl,2013-07-06 21:07:00,
2013-07-06 16:14:00,80.8,73.4,29.73,SSW,211,0.0,-999.0,63,0.00,,,0.03,Custom/Perl,2013-07-06 21:14:00,
2013-07-06 16:20:00,80.8,73.2,29.73,South,186,2.0,-999.0,62,0.00,,,0.03,Custom/Perl,2013-07-06 21:20:00,
2013-07-06 16:29:00,80.9,73.3,29.73,SSW,209,1.0,-999.0,62,0.00,,,0.03,Custom/Perl,2013-07-06 21:29:00,
2013-07-06 16:35:00,80.9,73.5,29.73,SSE,168,0.0,-999.0,63,0.00,,,0.03,Custom/Perl,2013-07-06 21:35:00,
2013-07-06 16:41:00,80.9,73.5,29.73,ESE,108,1.0,-999.0,63,0.00,,,0.03,Custom/Perl,2013-07-06 21:41:00,
2013-07-06 16:46:00,81.2,73.6,29.73,South,169,0.0,-999.0,62,0.00,,,0.03,Custom/Perl,2013-07-06 21:46:00,
2013-07-06 16:51:00,81.2,73.6,29.73,SSE,165,1.0,-999.0,62,0.00,,,0.03,Custom/Perl,2013-07-06 21:51:00,
2013-07-06 16:56:00,81.2,73.6,29.73,SSE,165,1.0,-999.0,62,0.00,,,0.03,Custom/Perl,2013-07-06 21:56:00,
2013-07-06 17:02:00,81.2,73.6,29.73,NE,47,1.0,-999.0,62,0.00,,,0.03,Custom/Perl,2013-07-06 22:02:00,
2013-07-06 17:07:00,81.2,73.6,29.72,SSW,200,0.0,-999.0,62,0.00,,,0.03,Custom/Perl,2013-07-06 22:07:00,
2013-07-06 17:12:00,81.2,73.6,29.72,SSE,158,0.0,-999.0,62,0.00,,,0.03,Custom/Perl,2013-07-06 22:12:00,
2013-07-06 17:18:00,81.2,73.6,29.72,SW,228,2.0,-999.0,62,0.00,,,0.03,Custom/Perl,2013-07-06 22:18:00,
2013-07-06 17:23:00,81.2,73.8,29.72,SE,139,2.0,-999.0,63,0.00,,,0.03,Custom/Perl,2013-07-06 22:23:00,
2013-07-06 17:28:00,81.1,73.5,29.72,SW,221,3.0,-999.0,62,0.00,,,0.03,Custom/Perl,2013-07-06 22:28:00,
2013-07-06 17:34:00,81.1,73.5,29.72,South,177,0.0,-999.0,62,0.00,,,0.03,Custom/Perl,2013-07-06 22:34:00,
2013-07-06 17:40:00,80.9,73.5,29.72,SSE,168,1.0,-999.0,63,0.00,,,0.03,Custom/Perl,2013-07-06 22:40:00,
2013-07-06 17:45:00,80.7,73.5,29.73,SSE,148,2.0,-999.0,64,0.00,,,0.03,Custom/Perl,2013-07-06 22:45:00,
2013-07-06 17:51:00,80.6,73.6,29.72,SSE,153,1.0,-999.0,65,0.00,,,0.03,Custom/Perl,2013-07-06 22:51:00,
2013-07-06 17:57:00,80.7,73.9,29.72,SSE,165,3.0,-999.0,66,0.00,,,0.03,Custom/Perl,2013-07-06 22:57:00,
2013-07-06 18:04:00,80.7,73.9,29.72,SSE,158,1.0,-999.0,66,0.00,,,0.03,Custom/Perl,2013-07-06 23:04:00,
2013-07-06 18:09:00,80.9,73.9,29.72,SSW,200,0.0,-999.0,65,0.00,,,0.03,Custom/Perl,2013-07-06 23:09:00,
2013-07-06 18:16:00,81.0,73.8,29.72,SSE,162,3.0,-999.0,64,0.00,,,0.03,Custom/Perl,2013-07-06 23:16:00,
2013-07-06 18:21:00,81.0,74.0,29.72,SSW,196,3.0,-999.0,65,0.00,,,0.03,Custom/Perl,2013-07-06 23:21:00,
2013-07-06 18:26:00,80.9,73.9,29.72,NNE,22,0.0,-999.0,65,0.00,,,0.03,Custom/Perl,2013-07-06 23:26:00,
2013-07-06 18:33:00,80.8,73.8,29.72,SSE,167,0.0,-999.0,65,0.00,,,0.03,Custom/Perl,2013-07-06 23:33:00,
2013-07-06 18:40:00,80.7,73.9,29.72,SW,215,0.0,-999.0,66,0.00,,,0.03,Custom/Perl,2013-07-06 23:40:00,
2013-07-06 18:46:00,80.4,73.8,29.72,South,174,0.0,-999.0,67,0.00,,,0.03,Custom/Perl,2013-07-06 23:46:00,
2013-07-06 18:51:00,80.3,73.7,29.72,SW,226,1.0,-999.0,67,0.00,,,0.03,Custom/Perl,2013-07-06 23:51:00,
2013-07-06 18:58:00,80.3,73.7,29.72,SW,216,0.0,-999.0,67,0.00,,,0.03,Custom/Perl,2013-07-06 23:58:00,
2013-07-06 19:04:00,80.2,73.6,29.71,SSE,152,1.0,-999.0,67,0.00,,,0.03,Custom/Perl,2013-07-07 00:04:00,
2013-07-06 19:09:00,80.1,73.3,29.71,SE,146,1.0,-999.0,66,0.00,,,0.03,Custom/Perl,2013-07-07 00:09:00,
2013-07-06 19:18:00,79.8,73.2,29.72,SSE,167,1.0,-999.0,67,0.00,,,0.03,Custom/Perl,2013-07-07 00:18:00,
2013-07-06 19:23:00,79.7,73.3,29.71,ESE,114,0.0,-999.0,68,0.00,,,0.03,Custom/Perl,2013-07-07 00:23:00,
2013-07-06 19:28:00,79.6,73.2,29.71,SSW,213,0.0,-999.0,68,0.00,,,0.03,Custom/Perl,2013-07-07 00:28:00,
2013-07-06 19:33:00,79.4,73.2,29.71,SSW,192,1.0,-999.0,69,0.00,,,0.03,Custom/Perl,2013-07-07 00:33:00,
2013-07-06 19:39:00,79.3,73.3,29.71,SSW,201,0.0,-999.0,70,0.00,,,0.03,Custom/Perl,2013-07-07 00:39:00,
2013-07-06 19:44:00,79.2,73.2,29.71,South,172,1.0,-999.0,70,0.00,,,0.03,Custom/Perl,2013-07-07 00:44:00,
2013-07-06 19:50:00,79.1,73.3,29.71,SSE,150,0.0,-999.0,71,0.00,,,0.03,Custom/Perl,2013-07-07 00:50:00,
2013-07-06 19:55:00,78.9,73.1,29.71,ESE,118,2.0,-999.0,71,0.00,,,0.03,Custom/Perl,2013-07-07 00:55:00,
2013-07-06 20:01:00,79.0,73.0,29.71,SW,227,0.0,-999.0,70,0.00,,,0.03,Custom/Perl,2013-07-07 01:01:00,
2013-07-06 20:07:00,79.0,73.0,29.72,SW,226,1.0,-999.0,70,0.00,,,0.03,Custom/Perl,2013-07-07 01:07:00,
2013-07-06 20:13:00,79.2,73.2,29.72,SW,214,0.0,-999.0,70,0.00,,,0.03,Custom/Perl,2013-07-07 01:13:00,
2013-07-06 20:18:00,79.2,73.2,29.72,SW,216,0.0,-999.0,70,0.00,,,0.03,Custom/Perl,2013-07-07 01:18:00,
2013-07-06 20:24:00,79.0,73.0,29.72,SSW,195,2.0,-999.0,70,0.00,,,0.03,Custom/Perl,2013-07-07 01:24:00,
2013-07-06 20:31:00,78.8,72.8,29.72,South,174,0.0,-999.0,70,0.00,,,0.03,Custom/Perl,2013-07-07 01:31:00,
2013-07-06 20:38:00,78.6,72.6,29.73,SW,236,1.0,-999.0,70,0.00,,,0.03,Custom/Perl,2013-07-07 01:38:00,
2013-07-06 20:44:00,78.5,72.5,29.73,SW,223,1.0,-999.0,70,0.00,,,0.03,Custom/Perl,2013-07-07 01:44:00,
2013-07-06 20:49:00,78.3,72.1,29.73,South,173,0.0,-999.0,69,0.00,,,0.03,Custom/Perl,2013-07-07 01:49:00,
2013-07-06 20:56:00,78.2,72.0,29.73,SSE,150,0.0,-999.0,69,0.00,,,0.03,Custom/Perl,2013-07-07 01:56:00,
2013-07-06 21:01:00,78.0,71.8,29.73,SSE,152,0.0,-999.0,69,0.00,,,0.03,Custom/Perl,2013-07-07 02:01:00,
2013-07-06 21:06:00,77.8,71.8,29.73,SE,132,3.0,-999.0,70,0.00,,,0.03,Custom/Perl,2013-07-07 02:06:00,
2013-07-06 21:12:00,77.7,71.5,29.73,SSE,147,1.0,-999.0,69,0.00,,,0.03,Custom/Perl,2013-07-07 02:12:00,
2013-07-06 21:18:00,77.7,71.5,29.73,SSW,198,0.0,-999.0,69,0.00,,,0.03,Custom/Perl,2013-07-07 02:18:00,
2013-07-06 21:23:00,77.7,71.5,29.73,SSW,204,2.0,-999.0,69,0.00,,,0.03,Custom/Perl,2013-07-07 02:23:00,
2013-07-06 21:29:00,77.5,71.3,29.73,West,259,0.0,-999.0,69,0.00,,,0.03,Custom/Perl,2013-07-07 02:29:00,
2013-07-06 21:34:00,77.6,71.4,29.73,SW,220,3.0,-999.0,69,0.00,,,0.03,Custom/Perl,2013-07-07 02:34:00,
2013-07-06 21:39:00,77.6,71.4,29.73,SW,236,2.0,-999.0,69,0.00,,,0.03,Custom/Perl,2013-07-07 02:39:00,
2013-07-06 21:46:00,77.6,71.4,29.73,ENE,68,0.0,-999.0,69,0.00,,,0.03,Custom/Perl,2013-07-07 02:46:00,
2013-07-06 21:51:00,77.5,71.3,29.73,SW,233,3.0,-999.0,69,0.00,,,0.03,Custom/Perl,2013-07-07 02:51:00,
2013-07-06 21:57:00,77.4,71.2,29.74,SSE,148,3.0,-999.0,69,0.00,,,0.03,Custom/Perl,2013-07-07 02:57:00,
2013-07-06 22:02:00,77.5,71.3,29.74,SW,227,0.0,-999.0,69,0.00,,,0.03,Custom/Perl,2013-07-07 03:02:00,
2013-07-06 22:08:00,77.5,71.3,29.73,SSW,212,3.0,-999.0,69,0.00,,,0.03,Custom/Perl,2013-07-07 03:08:00,
2013-07-06 22:14:00,77.6,71.4,29.73,South,186,0.0,-999.0,69,0.00,,,0.03,Custom/Perl,2013-07-07 03:14:00,
2013-07-06 22:19:00,77.5,71.3,29.73,SE,129,2.0,-999.0,69,0.00,,,0.03,Custom/Perl,2013-07-07 03:19:00,
2013-07-06 22:25:00,77.4,71.4,29.73,SW,229,0.0,-999.0,70,0.00,,,0.03,Custom/Perl,2013-07-07 03:25:00,
2013-07-06 22:31:00,77.2,71.2,29.74,South,186,0.0,-999.0,70,0.00,,,0.03,Custom/Perl,2013-07-07 03:31:00,
2013-07-06 22:38:00,77.2,71.2,29.74,SE,136,0.0,-999.0,70,0.00,,,0.03,Custom/Perl,2013-07-07 03:38:00,
2013-07-06 22:44:00,77.3,71.1,29.74,SW,234,0.0,-999.0,69,0.00,,,0.03,Custom/Perl,2013-07-07 03:44:00,
2013-07-06 22:50:00,77.2,71.0,29.73,SW,233,2.0,-999.0,69,0.00,,,0.03,Custom/Perl,2013-07-07 03:50:00,
2013-07-06 22:55:00,77.4,71.2,29.73,SSW,203,0.0,-999.0,69,0.00,,,0.03,Custom/Perl,2013-07-07 03:55:00,
2013-07-06 23:01:00,77.5,71.1,29.74,South,176,2.0,-999.0,68,0.00,,,0.03,Custom/Perl,2013-07-07 04:01:00,
2013-07-06 23:02:00,77.5,71.1,29.74,SW,214,0.0,-999.0,68,0.00,,,0.03,Custom/Perl,2013-07-07 04:02:00,
2013-07-06 23:04:00,77.5,71.3,29.75,South,176,1.0,-999.0,69,0.00,,,0.03,Custom/Perl,2013-07-07 04:04:00,
2013-07-06 23:09:00,77.5,71.3,29.75,SSW,212,3.0,-999.0,69,0.00,,,0.03,Custom/Perl,2013-07-07 04:09:00,
2013-07-06 23:14:00,77.4,71.2,29.75,SSW,200,0.0,-999.0,69,0.00,,,0.03,Custom/Perl,2013-07-07 04:14:00,
2013-07-06 23:20:00,77.4,71.6,29.74,SW,224,2.0,-999.0,71,0.00,,,0.03,Custom/Perl,2013-07-07 04:20:00,
2013-07-06 23:25:00,76.6,71.2,29.74,SW,214,1.0,-999.0,73,0.00,,,0.03,Custom/Perl,2013-07-07 04:25:00,
2013-07-06 23:30:00,75.9,70.9,29.75,SW,231,0.0,-999.0,75,0.00,,,0.03,Custom/Perl,2013-07-07 04:30:00,
2013-07-06 23:35:00,75.2,70.4,29.75,SE,141,1.0,-999.0,76,0.00,,,0.04,Custom/Perl,2013-07-07 04:35:00,
2013-07-06 23:41:00,74.6,70.0,29.74,South,188,0.0,-999.0,77,0.00,,,0.04,Custom/Perl,2013-07-07 04:41:00,
2013-07-06 23:46:00,74.2,69.8,29.74,SW,214,2.0,-999.0,78,0.00,,,0.04,Custom/Perl,2013-07-07 04:46:00,
2013-07-06 23:51:00,74.1,69.5,29.74,WSW,257,1.0,-999.0,77,0.00,,,0.04,Custom/Perl,2013-07-07 04:51:00,
2013-07-06 23:56:00,74.1,69.5,29.74,WSW,238,0.0,-999.0,77,0.00,,,0.04,Custom/Perl,2013-07-07 04:56:00,